sensor_id;sensor_type;location;lat;lon;timestamp;pressure;altitude;pressure_sealevel;temperature;humidity
1726;BME280;41776;48.260;8.928;2022-08-19T00:00:04;70660.25;;;-145.69;100.00
1726;BME280;41776;48.260;8.928;2022-08-19T00:02:31;70662.22;;;-145.69;100.00
1726;BME280;41776;48.260;8.928;2022-08-19T00:04:58;70658.25;;;-145.69;100.00
1726;BME280;41776;48.260;8.928;2022-08-19T00:07:24;70656.25;;;-145.69;100.00
1726;BME280;41776;48.260;8.928;2022-08-19T00:09:52;70658.25;;;-145.69;100.00
1726;BME280;41776;48.260;8.928;2022-08-19T00:12:19;70658.25;;;-145.69;100.00
1726;BME280;41776;48.260;8.928;2022-08-19T00:14:45;70654.28;;;-145.69;100.00
1726;BME280;41776;48.260;8.928;2022-08-19T00:17:12;70650.28;;;-145.69;100.00
1726;BME280;41776;48.260;8.928;2022-08-19T00:19:38;70650.28;;;-145.69;100.00
1726;BME280;41776;48.260;8.928;2022-08-19T00:22:05;70648.31;;;-145.69;100.00
1726;BME280;41776;48.260;8.928;2022-08-19T00:24:33;70644.31;;;-145.69;100.00
1726;BME280;41776;48.260;8.928;2022-08-19T00:27:01;70642.34;;;-145.69;100.00
1726;BME280;41776;48.260;8.928;2022-08-19T00:29:28;70648.31;;;-145.69;100.00
1726;BME280;41776;48.260;8.928;2022-08-19T00:31:55;70658.25;;;-145.69;100.00
1726;BME280;41776;48.260;8.928;2022-08-19T00:34:24;70666.22;;;-145.69;100.00
1726;BME280;41776;48.260;8.928;2022-08-19T00:36:53;70664.22;;;-145.69;100.00
1726;BME280;41776;48.260;8.928;2022-08-19T00:39:20;70662.22;;;-145.69;100.00
1726;BME280;41776;48.260;8.928;2022-08-19T00:41:48;70664.22;;;-145.69;100.00
1726;BME280;41776;48.260;8.928;2022-08-19T00:44:19;70660.25;;;-145.69;100.00
1726;BME280;41776;48.260;8.928;2022-08-19T00:46:47;70670.19;;;-145.69;100.00
1726;BME280;41776;48.260;8.928;2022-08-19T00:49:16;70674.16;;;-145.69;100.00
1726;BME280;41776;48.260;8.928;2022-08-19T00:51:47;70662.22;;;-145.69;100.00
1726;BME280;41776;48.260;8.928;2022-08-19T00:54:15;70672.19;;;-145.69;100.00
1726;BME280;41776;48.260;8.928;2022-08-19T00:56:43;70674.16;;;-145.69;100.00
1726;BME280;41776;48.260;8.928;2022-08-19T00:59:11;70672.19;;;-145.69;100.00
1726;BME280;41776;48.260;8.928;2022-08-19T01:01:41;70672.19;;;-145.69;100.00
1726;BME280;41776;48.260;8.928;2022-08-19T01:04:08;70666.22;;;-145.69;100.00
1726;BME280;41776;48.260;8.928;2022-08-19T01:06:35;70682.13;;;-145.69;100.00
1726;BME280;41776;48.260;8.928;2022-08-19T01:09:03;70680.13;;;-145.69;100.00
1726;BME280;41776;48.260;8.928;2022-08-19T01:11:30;70688.09;;;-145.69;100.00
1726;BME280;41776;48.260;8.928;2022-08-19T01:13:58;70694.06;;;-145.69;100.00
1726;BME280;41776;48.260;8.928;2022-08-19T01:16:27;70690.09;;;-145.69;100.00
1726;BME280;41776;48.260;8.928;2022-08-19T01:18:55;70694.06;;;-145.69;100.00
1726;BME280;41776;48.260;8.928;2022-08-19T01:21:28;70686.09;;;-145.69;100.00
1726;BME280;41776;48.260;8.928;2022-08-19T01:23:58;70690.09;;;-145.69;100.00
1726;BME280;41776;48.260;8.928;2022-08-19T01:26:26;70682.13;;;-145.69;100.00
1726;BME280;41776;48.260;8.928;2022-08-19T01:28:55;70684.13;;;-145.69;100.00
1726;BME280;41776;48.260;8.928;2022-08-19T01:31:25;70688.09;;;-145.69;100.00
1726;BME280;41776;48.260;8.928;2022-08-19T01:33:53;70684.13;;;-145.69;100.00
1726;BME280;41776;48.260;8.928;2022-08-19T01:36:23;70690.09;;;-145.69;100.00
1726;BME280;41776;48.260;8.928;2022-08-19T01:38:50;70692.06;;;-145.69;100.00
1726;BME280;41776;48.260;8.928;2022-08-19T01:41:18;70690.09;;;-145.69;100.00
1726;BME280;41776;48.260;8.928;2022-08-19T01:43:45;70698.03;;;-145.69;100.00
1726;BME280;41776;48.260;8.928;2022-08-19T01:46:12;70688.09;;;-145.69;100.00
1726;BME280;41776;48.260;8.928;2022-08-19T01:48:41;70694.06;;;-145.69;100.00
1726;BME280;41776;48.260;8.928;2022-08-19T01:51:09;70690.09;;;-145.69;100.00
1726;BME280;41776;48.260;8.928;2022-08-19T01:53:36;70696.06;;;-145.69;100.00
1726;BME280;41776;48.260;8.928;2022-08-19T01:56:04;70698.03;;;-145.69;100.00
1726;BME280;41776;48.260;8.928;2022-08-19T01:58:36;70704.00;;;-145.69;100.00
1726;BME280;41776;48.260;8.928;2022-08-19T02:01:04;70702.03;;;-145.69;100.00
1726;BME280;41776;48.260;8.928;2022-08-19T02:03:31;70694.06;;;-145.69;100.00
1726;BME280;41776;48.260;8.928;2022-08-19T02:06:00;70698.03;;;-145.69;100.00
1726;BME280;41776;48.260;8.928;2022-08-19T02:08:29;70702.03;;;-145.69;100.00
1726;BME280;41776;48.260;8.928;2022-08-19T02:10:56;70704.00;;;-145.69;100.00
1726;BME280;41776;48.260;8.928;2022-08-19T02:13:23;70702.03;;;-145.69;100.00
1726;BME280;41776;48.260;8.928;2022-08-19T02:15:51;70702.03;;;-145.69;100.00
1726;BME280;41776;48.260;8.928;2022-08-19T02:18:18;70704.00;;;-145.69;100.00
1726;BME280;41776;48.260;8.928;2022-08-19T02:20:44;70704.00;;;-145.69;100.00
1726;BME280;41776;48.260;8.928;2022-08-19T02:23:13;70698.03;;;-145.69;100.00
1726;BME280;41776;48.260;8.928;2022-08-19T02:25:41;70696.06;;;-145.69;100.00
1726;BME280;41776;48.260;8.928;2022-08-19T02:28:07;70694.06;;;-145.69;100.00
1726;BME280;41776;48.260;8.928;2022-08-19T02:30:34;70706.00;;;-145.69;100.00
1726;BME280;41776;48.260;8.928;2022-08-19T02:33:02;70709.97;;;-145.69;100.00
1726;BME280;41776;48.260;8.928;2022-08-19T02:35:28;70709.97;;;-145.69;100.00
1726;BME280;41776;48.260;8.928;2022-08-19T02:37:54;70713.97;;;-145.69;100.00
1726;BME280;41776;48.260;8.928;2022-08-19T02:40:38;70723.91;;;-145.69;100.00
1726;BME280;41776;48.260;8.928;2022-08-19T02:43:07;70721.91;;;-145.69;100.00
1726;BME280;41776;48.260;8.928;2022-08-19T02:45:34;70713.97;;;-145.69;100.00
1726;BME280;41776;48.260;8.928;2022-08-19T02:48:03;70717.94;;;-145.69;100.00
1726;BME280;41776;48.260;8.928;2022-08-19T02:50:30;70725.91;;;-145.69;100.00
1726;BME280;41776;48.260;8.928;2022-08-19T02:52:57;70721.91;;;-145.69;100.00
1726;BME280;41776;48.260;8.928;2022-08-19T02:55:24;70721.91;;;-145.69;100.00
1726;BME280;41776;48.260;8.928;2022-08-19T02:57:50;70719.94;;;-145.69;100.00
1726;BME280;41776;48.260;8.928;2022-08-19T03:00:17;70725.91;;;-145.69;100.00
1726;BME280;41776;48.260;8.928;2022-08-19T03:02:43;70725.91;;;-145.69;100.00
1726;BME280;41776;48.260;8.928;2022-08-19T03:05:13;70721.91;;;-145.69;100.00
1726;BME280;41776;48.260;8.928;2022-08-19T03:07:39;70727.88;;;-145.69;100.00
1726;BME280;41776;48.260;8.928;2022-08-19T03:10:06;70713.97;;;-145.69;100.00
1726;BME280;41776;48.260;8.928;2022-08-19T03:12:35;70711.97;;;-145.69;100.00
1726;BME280;41776;48.260;8.928;2022-08-19T03:15:03;70709.97;;;-145.69;100.00
1726;BME280;41776;48.260;8.928;2022-08-19T03:17:29;70702.03;;;-145.69;100.00
1726;BME280;41776;48.260;8.928;2022-08-19T03:19:56;70702.03;;;-145.69;100.00
1726;BME280;41776;48.260;8.928;2022-08-19T03:22:23;70704.00;;;-145.69;100.00
1726;BME280;41776;48.260;8.928;2022-08-19T03:24:50;70706.00;;;-145.69;100.00
1726;BME280;41776;48.260;8.928;2022-08-19T03:27:17;70713.97;;;-145.69;100.00
1726;BME280;41776;48.260;8.928;2022-08-19T03:29:43;70711.97;;;-145.69;100.00
1726;BME280;41776;48.260;8.928;2022-08-19T03:32:11;70711.97;;;-145.69;100.00
1726;BME280;41776;48.260;8.928;2022-08-19T03:34:38;70721.91;;;-145.69;100.00
1726;BME280;41776;48.260;8.928;2022-08-19T03:37:06;70713.97;;;-145.69;100.00
1726;BME280;41776;48.260;8.928;2022-08-19T03:39:35;70723.91;;;-145.69;100.00
1726;BME280;41776;48.260;8.928;2022-08-19T03:42:03;70725.91;;;-145.69;100.00
1726;BME280;41776;48.260;8.928;2022-08-19T03:44:31;70727.88;;;-145.69;100.00
1726;BME280;41776;48.260;8.928;2022-08-19T03:46:59;70715.94;;;-145.69;100.00
1726;BME280;41776;48.260;8.928;2022-08-19T03:49:28;70725.91;;;-145.69;100.00
1726;BME280;41776;48.260;8.928;2022-08-19T03:51:57;70723.91;;;-145.69;100.00
1726;BME280;41776;48.260;8.928;2022-08-19T03:54:25;70721.91;;;-145.69;100.00
1726;BME280;41776;48.260;8.928;2022-08-19T03:56:55;70725.91;;;-145.69;100.00
1726;BME280;41776;48.260;8.928;2022-08-19T03:59:24;70709.97;;;-145.69;100.00
1726;BME280;41776;48.260;8.928;2022-08-19T04:01:51;70725.91;;;-145.69;100.00
1726;BME280;41776;48.260;8.928;2022-08-19T04:04:18;70721.91;;;-145.69;100.00
1726;BME280;41776;48.260;8.928;2022-08-19T04:06:44;70711.97;;;-145.69;100.00
1726;BME280;41776;48.260;8.928;2022-08-19T04:09:12;70717.94;;;-145.69;100.00
1726;BME280;41776;48.260;8.928;2022-08-19T04:11:40;70719.94;;;-145.69;100.00
1726;BME280;41776;48.260;8.928;2022-08-19T04:14:09;70719.94;;;-145.69;100.00
1726;BME280;41776;48.260;8.928;2022-08-19T04:16:36;70721.91;;;-145.69;100.00
1726;BME280;41776;48.260;8.928;2022-08-19T04:19:04;70719.94;;;-145.69;100.00
1726;BME280;41776;48.260;8.928;2022-08-19T04:21:31;70719.94;;;-145.69;100.00
1726;BME280;41776;48.260;8.928;2022-08-19T04:23:58;70719.94;;;-145.69;100.00
1726;BME280;41776;48.260;8.928;2022-08-19T04:26:26;70721.91;;;-145.69;100.00
1726;BME280;41776;48.260;8.928;2022-08-19T04:28:54;70721.91;;;-145.69;100.00
1726;BME280;41776;48.260;8.928;2022-08-19T04:31:24;70723.91;;;-145.69;100.00
1726;BME280;41776;48.260;8.928;2022-08-19T04:33:51;70727.88;;;-145.69;100.00
1726;BME280;41776;48.260;8.928;2022-08-19T04:36:19;70729.88;;;-145.69;100.00
1726;BME280;41776;48.260;8.928;2022-08-19T04:38:46;70723.91;;;-145.69;100.00
1726;BME280;41776;48.260;8.928;2022-08-19T04:41:13;70719.94;;;-145.69;100.00
1726;BME280;41776;48.260;8.928;2022-08-19T04:43:57;70713.97;;;-145.69;100.00
1726;BME280;41776;48.260;8.928;2022-08-19T04:46:25;70733.84;;;-145.69;100.00
1726;BME280;41776;48.260;8.928;2022-08-19T04:48:52;70735.84;;;-145.69;100.00
1726;BME280;41776;48.260;8.928;2022-08-19T04:51:21;70729.88;;;-145.69;100.00
1726;BME280;41776;48.260;8.928;2022-08-19T04:53:48;70723.91;;;-145.69;100.00
1726;BME280;41776;48.260;8.928;2022-08-19T04:56:16;70725.91;;;-145.69;100.00
1726;BME280;41776;48.260;8.928;2022-08-19T04:58:45;70725.91;;;-145.69;100.00
1726;BME280;41776;48.260;8.928;2022-08-19T05:01:12;70733.84;;;-145.69;100.00
1726;BME280;41776;48.260;8.928;2022-08-19T05:03:40;70741.81;;;-145.69;100.00
1726;BME280;41776;48.260;8.928;2022-08-19T05:06:09;70753.75;;;-145.69;100.00
1726;BME280;41776;48.260;8.928;2022-08-19T05:08:37;70755.75;;;-145.69;100.00
1726;BME280;41776;48.260;8.928;2022-08-19T05:11:08;70761.72;;;-145.69;100.00
1726;BME280;41776;48.260;8.928;2022-08-19T05:13:36;70769.66;;;-145.69;100.00
1726;BME280;41776;48.260;8.928;2022-08-19T05:16:03;70761.72;;;-145.69;100.00
1726;BME280;41776;48.260;8.928;2022-08-19T05:18:29;70751.75;;;-145.69;100.00
1726;BME280;41776;48.260;8.928;2022-08-19T05:21:17;70755.75;;;-145.69;100.00
1726;BME280;41776;48.260;8.928;2022-08-19T05:24:02;70757.72;;;-145.69;100.00
1726;BME280;41776;48.260;8.928;2022-08-19T05:26:29;70749.78;;;-145.69;100.00
1726;BME280;41776;48.260;8.928;2022-08-19T05:28:55;70775.63;;;-145.69;100.00
1726;BME280;41776;48.260;8.928;2022-08-19T05:31:21;70783.59;;;-145.69;100.00
1726;BME280;41776;48.260;8.928;2022-08-19T05:33:48;70781.59;;;-145.69;100.00
1726;BME280;41776;48.260;8.928;2022-08-19T05:36:16;70771.66;;;-145.69;100.00
1726;BME280;41776;48.260;8.928;2022-08-19T05:38:45;70763.69;;;-145.69;100.00
1726;BME280;41776;48.260;8.928;2022-08-19T05:41:13;70757.72;;;-145.69;100.00
1726;BME280;41776;48.260;8.928;2022-08-19T05:43:40;70757.72;;;-145.69;100.00
1726;BME280;41776;48.260;8.928;2022-08-19T05:46:07;70755.75;;;-145.69;100.00
1726;BME280;41776;48.260;8.928;2022-08-19T05:48:35;70749.78;;;-145.69;100.00
1726;BME280;41776;48.260;8.928;2022-08-19T05:51:04;70765.69;;;-145.69;100.00
1726;BME280;41776;48.260;8.928;2022-08-19T05:53:33;70769.66;;;-145.69;100.00
1726;BME280;41776;48.260;8.928;2022-08-19T05:56:03;70773.66;;;-145.69;100.00
1726;BME280;41776;48.260;8.928;2022-08-19T05:58:30;70761.72;;;-145.69;100.00
1726;BME280;41776;48.260;8.928;2022-08-19T06:00:58;70753.75;;;-145.69;100.00
1726;BME280;41776;48.260;8.928;2022-08-19T06:03:29;70739.81;;;-145.69;100.00
1726;BME280;41776;48.260;8.928;2022-08-19T06:05:56;70745.78;;;-145.69;100.00
1726;BME280;41776;48.260;8.928;2022-08-19T06:08:24;70741.81;;;-145.69;100.00
1726;BME280;41776;48.260;8.928;2022-08-19T06:10:52;70737.84;;;-145.69;100.00
1726;BME280;41776;48.260;8.928;2022-08-19T06:13:19;70745.78;;;-145.69;100.00
1726;BME280;41776;48.260;8.928;2022-08-19T06:15:45;70753.75;;;-145.69;100.00
1726;BME280;41776;48.260;8.928;2022-08-19T06:18:12;70753.75;;;-145.69;100.00
1726;BME280;41776;48.260;8.928;2022-08-19T06:20:40;70753.75;;;-145.69;100.00
1726;BME280;41776;48.260;8.928;2022-08-19T06:23:07;70749.78;;;-145.69;100.00
1726;BME280;41776;48.260;8.928;2022-08-19T06:25:34;70741.81;;;-145.69;100.00
1726;BME280;41776;48.260;8.928;2022-08-19T06:28:02;70749.78;;;-145.69;100.00
1726;BME280;41776;48.260;8.928;2022-08-19T06:30:29;70733.84;;;-145.69;100.00
1726;BME280;41776;48.260;8.928;2022-08-19T06:32:55;70729.88;;;-145.69;100.00
1726;BME280;41776;48.260;8.928;2022-08-19T06:35:24;70725.91;;;-145.69;100.00
1726;BME280;41776;48.260;8.928;2022-08-19T06:37:51;70733.84;;;-145.69;100.00
1726;BME280;41776;48.260;8.928;2022-08-19T06:40:18;70743.81;;;-145.69;100.00
1726;BME280;41776;48.260;8.928;2022-08-19T06:42:44;70741.81;;;-145.69;100.00
1726;BME280;41776;48.260;8.928;2022-08-19T06:45:12;70733.84;;;-145.69;100.00
1726;BME280;41776;48.260;8.928;2022-08-19T06:47:40;70737.84;;;-145.69;100.00
1726;BME280;41776;48.260;8.928;2022-08-19T06:50:13;70735.84;;;-145.69;100.00
1726;BME280;41776;48.260;8.928;2022-08-19T06:52:39;70729.88;;;-145.69;100.00
1726;BME280;41776;48.260;8.928;2022-08-19T06:55:06;70719.94;;;-145.69;100.00
1726;BME280;41776;48.260;8.928;2022-08-19T06:57:33;70723.91;;;-145.69;100.00
1726;BME280;41776;48.260;8.928;2022-08-19T07:00:00;70729.88;;;-145.69;100.00
1726;BME280;41776;48.260;8.928;2022-08-19T07:02:28;70719.94;;;-145.69;100.00
1726;BME280;41776;48.260;8.928;2022-08-19T07:04:54;70713.97;;;-145.69;100.00
1726;BME280;41776;48.260;8.928;2022-08-19T07:07:23;70706.00;;;-145.69;100.00
1726;BME280;41776;48.260;8.928;2022-08-19T07:09:50;70706.00;;;-145.69;100.00
1726;BME280;41776;48.260;8.928;2022-08-19T07:12:18;70698.03;;;-145.69;100.00
1726;BME280;41776;48.260;8.928;2022-08-19T07:14:44;70682.13;;;-145.69;100.00
1726;BME280;41776;48.260;8.928;2022-08-19T07:17:12;70666.22;;;-145.69;100.00
1726;BME280;41776;48.260;8.928;2022-08-19T07:19:40;70674.16;;;-145.69;100.00
1726;BME280;41776;48.260;8.928;2022-08-19T07:22:08;70690.09;;;-145.69;100.00
1726;BME280;41776;48.260;8.928;2022-08-19T07:24:35;70708.00;;;-145.69;100.00
1726;BME280;41776;48.260;8.928;2022-08-19T07:27:03;70719.94;;;-145.69;100.00
1726;BME280;41776;48.260;8.928;2022-08-19T07:29:32;70713.97;;;-145.69;100.00
1726;BME280;41776;48.260;8.928;2022-08-19T07:32:01;70729.88;;;-145.69;100.00
1726;BME280;41776;48.260;8.928;2022-08-19T07:34:29;70733.84;;;-145.69;100.00
1726;BME280;41776;48.260;8.928;2022-08-19T07:36:57;70735.84;;;-145.69;100.00
1726;BME280;41776;48.260;8.928;2022-08-19T07:39:26;70737.84;;;-145.69;100.00
1726;BME280;41776;48.260;8.928;2022-08-19T07:41:54;70745.78;;;-145.69;100.00
1726;BME280;41776;48.260;8.928;2022-08-19T07:44:22;70737.84;;;-145.69;100.00
1726;BME280;41776;48.260;8.928;2022-08-19T07:46:51;70745.78;;;-145.69;100.00
1726;BME280;41776;48.260;8.928;2022-08-19T07:49:19;70737.84;;;-145.69;100.00
1726;BME280;41776;48.260;8.928;2022-08-19T07:51:47;70749.78;;;-145.69;100.00
1726;BME280;41776;48.260;8.928;2022-08-19T07:54:16;70761.72;;;-145.69;100.00
1726;BME280;41776;48.260;8.928;2022-08-19T07:56:42;70761.72;;;-145.69;100.00
1726;BME280;41776;48.260;8.928;2022-08-19T07:59:09;70751.75;;;-145.69;100.00
1726;BME280;41776;48.260;8.928;2022-08-19T08:01:37;70753.75;;;-145.69;100.00
1726;BME280;41776;48.260;8.928;2022-08-19T08:04:06;70753.75;;;-145.69;100.00
1726;BME280;41776;48.260;8.928;2022-08-19T08:06:50;70761.72;;;-145.69;100.00
1726;BME280;41776;48.260;8.928;2022-08-19T08:09:39;70759.72;;;-145.69;100.00
1726;BME280;41776;48.260;8.928;2022-08-19T08:12:07;70761.72;;;-145.69;100.00
1726;BME280;41776;48.260;8.928;2022-08-19T08:14:38;70761.72;;;-145.69;100.00
1726;BME280;41776;48.260;8.928;2022-08-19T08:17:06;70765.69;;;-145.69;100.00
1726;BME280;41776;48.260;8.928;2022-08-19T08:19:33;70761.72;;;-145.69;100.00
1726;BME280;41776;48.260;8.928;2022-08-19T08:22:00;70765.69;;;-145.69;100.00
1726;BME280;41776;48.260;8.928;2022-08-19T08:24:29;70765.69;;;-145.69;100.00
1726;BME280;41776;48.260;8.928;2022-08-19T08:26:58;70767.69;;;-145.69;100.00
1726;BME280;41776;48.260;8.928;2022-08-19T08:29:26;70777.63;;;-145.69;100.00
1726;BME280;41776;48.260;8.928;2022-08-19T08:31:52;70781.59;;;-145.69;100.00
1726;BME280;41776;48.260;8.928;2022-08-19T08:34:20;70781.59;;;-145.69;100.00
1726;BME280;41776;48.260;8.928;2022-08-19T08:36:46;70781.59;;;-145.69;100.00
1726;BME280;41776;48.260;8.928;2022-08-19T08:39:15;70787.56;;;-145.69;100.00
1726;BME280;41776;48.260;8.928;2022-08-19T08:41:47;70797.53;;;-145.69;100.00
1726;BME280;41776;48.260;8.928;2022-08-19T08:44:22;70797.53;;;-145.69;100.00
1726;BME280;41776;48.260;8.928;2022-08-19T08:46:51;70803.50;;;-145.69;100.00
1726;BME280;41776;48.260;8.928;2022-08-19T08:49:28;70803.50;;;-145.69;100.00
1726;BME280;41776;48.260;8.928;2022-08-19T08:52:00;70803.50;;;-145.69;100.00
1726;BME280;41776;48.260;8.928;2022-08-19T08:54:32;70805.47;;;-145.69;100.00
1726;BME280;41776;48.260;8.928;2022-08-19T08:56:59;70811.44;;;-145.69;100.00
1726;BME280;41776;48.260;8.928;2022-08-19T08:59:30;70813.44;;;-145.69;100.00
1726;BME280;41776;48.260;8.928;2022-08-19T09:01:57;70805.47;;;-145.69;100.00
1726;BME280;41776;48.260;8.928;2022-08-19T09:04:24;70805.47;;;-145.69;100.00
1726;BME280;41776;48.260;8.928;2022-08-19T09:06:55;70809.47;;;-145.69;100.00
1726;BME280;41776;48.260;8.928;2022-08-19T09:09:29;70805.47;;;-145.69;100.00
1726;BME280;41776;48.260;8.928;2022-08-19T09:12:04;70801.50;;;-145.69;100.00
1726;BME280;41776;48.260;8.928;2022-08-19T09:14:40;70805.47;;;-145.69;100.00
1726;BME280;41776;48.260;8.928;2022-08-19T09:17:12;70793.53;;;-145.69;100.00
1726;BME280;41776;48.260;8.928;2022-08-19T09:19:49;70805.47;;;-145.69;100.00
1726;BME280;41776;48.260;8.928;2022-08-19T09:22:16;70801.50;;;-145.69;100.00
1726;BME280;41776;48.260;8.928;2022-08-19T09:24:42;70801.50;;;-145.69;100.00
1726;BME280;41776;48.260;8.928;2022-08-19T09:27:09;70795.53;;;-145.69;100.00
1726;BME280;41776;48.260;8.928;2022-08-19T09:29:37;70787.56;;;-145.69;100.00
1726;BME280;41776;48.260;8.928;2022-08-19T09:32:04;70783.59;;;-145.69;100.00
1726;BME280;41776;48.260;8.928;2022-08-19T09:34:31;70783.59;;;-145.69;100.00
1726;BME280;41776;48.260;8.928;2022-08-19T09:36:58;70785.59;;;-145.69;100.00
1726;BME280;41776;48.260;8.928;2022-08-19T09:39:25;70787.56;;;-145.69;100.00
1726;BME280;41776;48.260;8.928;2022-08-19T09:41:51;70783.59;;;-145.69;100.00
1726;BME280;41776;48.260;8.928;2022-08-19T09:44:20;70791.56;;;-145.69;100.00
1726;BME280;41776;48.260;8.928;2022-08-19T09:46:47;70787.56;;;-145.69;100.00
1726;BME280;41776;48.260;8.928;2022-08-19T09:49:14;70779.63;;;-145.69;100.00
1726;BME280;41776;48.260;8.928;2022-08-19T09:51:42;70785.59;;;-145.69;100.00
1726;BME280;41776;48.260;8.928;2022-08-19T09:54:09;70785.59;;;-145.69;100.00
1726;BME280;41776;48.260;8.928;2022-08-19T09:56:35;70795.53;;;-145.69;100.00
1726;BME280;41776;48.260;8.928;2022-08-19T09:59:03;70793.53;;;-145.69;100.00
1726;BME280;41776;48.260;8.928;2022-08-19T10:01:31;70793.53;;;-145.69;100.00
1726;BME280;41776;48.260;8.928;2022-08-19T10:04:00;70789.56;;;-145.69;100.00
1726;BME280;41776;48.260;8.928;2022-08-19T10:06:28;70789.56;;;-145.69;100.00
1726;BME280;41776;48.260;8.928;2022-08-19T10:08:58;70797.53;;;-145.69;100.00
1726;BME280;41776;48.260;8.928;2022-08-19T10:11:25;70795.53;;;-145.69;100.00
1726;BME280;41776;48.260;8.928;2022-08-19T10:13:53;70797.53;;;-145.69;100.00
1726;BME280;41776;48.260;8.928;2022-08-19T10:16:22;70805.47;;;-145.69;100.00
1726;BME280;41776;48.260;8.928;2022-08-19T10:18:49;70801.50;;;-145.69;100.00
1726;BME280;41776;48.260;8.928;2022-08-19T10:21:19;70809.47;;;-145.69;100.00
1726;BME280;41776;48.260;8.928;2022-08-19T10:23:49;70809.47;;;-145.69;100.00
1726;BME280;41776;48.260;8.928;2022-08-19T10:26:18;70809.47;;;-145.69;100.00
1726;BME280;41776;48.260;8.928;2022-08-19T10:28:45;70797.53;;;-145.69;100.00
1726;BME280;41776;48.260;8.928;2022-08-19T10:31:14;70807.47;;;-145.69;100.00
1726;BME280;41776;48.260;8.928;2022-08-19T10:33:41;70809.47;;;-145.69;100.00
1726;BME280;41776;48.260;8.928;2022-08-19T10:36:11;70815.44;;;-145.69;100.00
1726;BME280;41776;48.260;8.928;2022-08-19T10:38:41;70817.41;;;-145.69;100.00
1726;BME280;41776;48.260;8.928;2022-08-19T10:41:11;70829.34;;;-145.69;100.00
1726;BME280;41776;48.260;8.928;2022-08-19T10:43:38;70825.38;;;-145.69;100.00
1726;BME280;41776;48.260;8.928;2022-08-19T10:46:06;70837.31;;;-145.69;100.00
1726;BME280;41776;48.260;8.928;2022-08-19T10:48:33;70833.34;;;-145.69;100.00
1726;BME280;41776;48.260;8.928;2022-08-19T10:50:59;70829.34;;;-145.69;100.00
1726;BME280;41776;48.260;8.928;2022-08-19T10:53:45;70829.34;;;-145.69;100.00
1726;BME280;41776;48.260;8.928;2022-08-19T10:56:12;70833.34;;;-145.69;100.00
1726;BME280;41776;48.260;8.928;2022-08-19T10:58:57;70825.38;;;-145.69;100.00
1726;BME280;41776;48.260;8.928;2022-08-19T11:01:24;70821.41;;;-145.69;100.00
1726;BME280;41776;48.260;8.928;2022-08-19T11:03:50;70811.44;;;-145.69;100.00
1726;BME280;41776;48.260;8.928;2022-08-19T11:06:17;70799.50;;;-145.69;100.00
1726;BME280;41776;48.260;8.928;2022-08-19T11:08:45;70797.53;;;-145.69;100.00
1726;BME280;41776;48.260;8.928;2022-08-19T11:11:12;70813.44;;;-145.69;100.00
1726;BME280;41776;48.260;8.928;2022-08-19T11:13:40;70805.47;;;-145.69;100.00
1726;BME280;41776;48.260;8.928;2022-08-19T11:16:11;70809.47;;;-145.69;100.00
1726;BME280;41776;48.260;8.928;2022-08-19T11:18:41;70805.47;;;-145.69;100.00
1726;BME280;41776;48.260;8.928;2022-08-19T11:21:11;70783.59;;;-145.69;100.00
1726;BME280;41776;48.260;8.928;2022-08-19T11:23:39;70781.59;;;-145.69;100.00
1726;BME280;41776;48.260;8.928;2022-08-19T11:26:07;70795.53;;;-145.69;100.00
1726;BME280;41776;48.260;8.928;2022-08-19T11:28:34;70813.44;;;-145.69;100.00
1726;BME280;41776;48.260;8.928;2022-08-19T11:31:01;70813.44;;;-145.69;100.00
1726;BME280;41776;48.260;8.928;2022-08-19T11:33:28;70795.53;;;-145.69;100.00
1726;BME280;41776;48.260;8.928;2022-08-19T11:35:57;70797.53;;;-145.69;100.00
1726;BME280;41776;48.260;8.928;2022-08-19T11:38:24;70795.53;;;-145.69;100.00
1726;BME280;41776;48.260;8.928;2022-08-19T11:40:59;70795.53;;;-145.69;100.00
1726;BME280;41776;48.260;8.928;2022-08-19T11:43:28;70805.47;;;-145.69;100.00
1726;BME280;41776;48.260;8.928;2022-08-19T11:45:56;70799.50;;;-145.69;100.00
1726;BME280;41776;48.260;8.928;2022-08-19T11:48:24;70785.59;;;-145.69;100.00
1726;BME280;41776;48.260;8.928;2022-08-19T11:50:52;70781.59;;;-145.69;100.00
1726;BME280;41776;48.260;8.928;2022-08-19T11:53:20;70771.66;;;-145.69;100.00
1726;BME280;41776;48.260;8.928;2022-08-19T11:55:48;70769.66;;;-145.69;100.00
1726;BME280;41776;48.260;8.928;2022-08-19T11:58:16;70777.63;;;-145.69;100.00
1726;BME280;41776;48.260;8.928;2022-08-19T12:00:44;70771.66;;;-145.69;100.00
1726;BME280;41776;48.260;8.928;2022-08-19T12:03:12;70777.63;;;-145.69;100.00
1726;BME280;41776;48.260;8.928;2022-08-19T12:05:40;70773.66;;;-145.69;100.00
1726;BME280;41776;48.260;8.928;2022-08-19T12:08:07;70777.63;;;-145.69;100.00
1726;BME280;41776;48.260;8.928;2022-08-19T12:10:35;70777.63;;;-145.69;100.00
1726;BME280;41776;48.260;8.928;2022-08-19T12:13:02;70793.53;;;-145.69;100.00
1726;BME280;41776;48.260;8.928;2022-08-19T12:15:30;70793.53;;;-145.69;100.00
1726;BME280;41776;48.260;8.928;2022-08-19T12:17:58;70795.53;;;-145.69;100.00
1726;BME280;41776;48.260;8.928;2022-08-19T12:20:24;70799.50;;;-145.69;100.00
1726;BME280;41776;48.260;8.928;2022-08-19T12:22:51;70799.50;;;-145.69;100.00
1726;BME280;41776;48.260;8.928;2022-08-19T12:25:18;70797.53;;;-145.69;100.00
1726;BME280;41776;48.260;8.928;2022-08-19T12:27:45;70797.53;;;-145.69;100.00
1726;BME280;41776;48.260;8.928;2022-08-19T12:30:13;70789.56;;;-145.69;100.00
1726;BME280;41776;48.260;8.928;2022-08-19T12:32:40;70797.53;;;-145.69;100.00
1726;BME280;41776;48.260;8.928;2022-08-19T12:35:08;70813.44;;;-145.69;100.00
1726;BME280;41776;48.260;8.928;2022-08-19T12:37:35;70813.44;;;-145.69;100.00
1726;BME280;41776;48.260;8.928;2022-08-19T12:40:03;70807.47;;;-145.69;100.00
1726;BME280;41776;48.260;8.928;2022-08-19T12:42:30;70803.50;;;-145.69;100.00
1726;BME280;41776;48.260;8.928;2022-08-19T12:44:56;70781.59;;;-145.69;100.00